LPLA METAR and TAF weather

Enter ICAO airport designator
Station Type Date Time Source
LPLA METAR 2019/12/14 19:00 UTC NOAA

LPLA 141900Z /////KT 9999 SCT023 14/09 Q1021


Station Type Date Time Source
LPLA Decoded METAR 2019/12/14 19:00 UTC NOAA

Lajes Acores , Portugal (LPLA) 38-46N 027-06W 54M
Dec 14, 2019 - 02:00 PM EST / 2019.12.14 1900 UTC
Visibility: greater than 7 mile(s):0
Sky conditions: partly cloudy
Temperature: 57 F (14 C)
Dew Point: 48 F (9 C)
Relative Humidity: 71%
Pressure (altimeter): 30.15 in. Hg (1021 hPa)
ob: LPLA 141900Z /////KT 9999 SCT023 14/09 Q1021
cycle: 19

Station Type Date Time Source
LPLA TAF 2019/12/14 18:18 UTC NOAA

TAF LPLA 141701Z 1418/1518 33020KT 9999 FEW020 BKN030
TEMPO 1418/1518 33025G35KT 8000 -SHRA SCT014 BKN018 PROB40
TEMPO 1512/1518 33030G40KT

Example: see airport list